sensor_id;sensor_type;location;lat;lon;timestamp;P1;durP1;ratioP1;P2;durP2;ratioP2
9438;SDS011;5176;42.622;25.386;2023-04-03T00:01:28;1.90;;;1.80;;
9438;SDS011;5176;42.622;25.386;2023-04-03T00:03:58;1.93;;;1.80;;
9438;SDS011;5176;42.622;25.386;2023-04-03T00:06:27;1.93;;;1.70;;
9438;SDS011;5176;42.622;25.386;2023-04-03T00:08:55;1.53;;;1.43;;
9438;SDS011;5176;42.622;25.386;2023-04-03T00:11:24;3.20;;;1.63;;
9438;SDS011;5176;42.622;25.386;2023-04-03T00:13:53;1.60;;;1.50;;
9438;SDS011;5176;42.622;25.386;2023-04-03T00:16:22;2.17;;;1.40;;
9438;SDS011;5176;42.622;25.386;2023-04-03T00:18:51;1.80;;;1.70;;
9438;SDS011;5176;42.622;25.386;2023-04-03T00:21:21;1.77;;;1.67;;
9438;SDS011;5176;42.622;25.386;2023-04-03T00:23:50;2.43;;;1.70;;
9438;SDS011;5176;42.622;25.386;2023-04-03T00:26:19;1.80;;;1.70;;
9438;SDS011;5176;42.622;25.386;2023-04-03T00:28:48;1.60;;;1.50;;
9438;SDS011;5176;42.622;25.386;2023-04-03T00:31:17;1.93;;;1.73;;
9438;SDS011;5176;42.622;25.386;2023-04-03T00:33:46;2.00;;;1.90;;
9438;SDS011;5176;42.622;25.386;2023-04-03T00:36:15;2.50;;;2.30;;
9438;SDS011;5176;42.622;25.386;2023-04-03T00:38:45;2.60;;;2.40;;
9438;SDS011;5176;42.622;25.386;2023-04-03T00:41:14;2.87;;;2.50;;
9438;SDS011;5176;42.622;25.386;2023-04-03T00:43:43;2.60;;;2.37;;
9438;SDS011;5176;42.622;25.386;2023-04-03T00:46:12;2.87;;;2.67;;
9438;SDS011;5176;42.622;25.386;2023-04-03T00:48:41;3.67;;;3.00;;
9438;SDS011;5176;42.622;25.386;2023-04-03T00:51:12;3.70;;;3.40;;
9438;SDS011;5176;42.622;25.386;2023-04-03T00:53:46;3.53;;;3.03;;
9438;SDS011;5176;42.622;25.386;2023-04-03T00:56:17;4.23;;;3.60;;
9438;SDS011;5176;42.622;25.386;2023-04-03T00:58:50;3.17;;;2.87;;
9438;SDS011;5176;42.622;25.386;2023-04-03T01:01:24;3.17;;;2.87;;
9438;SDS011;5176;42.622;25.386;2023-04-03T01:03:55;3.13;;;2.90;;
9438;SDS011;5176;42.622;25.386;2023-04-03T01:06:25;3.30;;;3.00;;
9438;SDS011;5176;42.622;25.386;2023-04-03T01:08:59;3.37;;;3.00;;
9438;SDS011;5176;42.622;25.386;2023-04-03T01:11:29;3.63;;;3.33;;
9438;SDS011;5176;42.622;25.386;2023-04-03T01:13:57;4.03;;;3.63;;
9438;SDS011;5176;42.622;25.386;2023-04-03T01:16:28;4.37;;;3.10;;
9438;SDS011;5176;42.622;25.386;2023-04-03T01:18:58;4.23;;;3.83;;
9438;SDS011;5176;42.622;25.386;2023-04-03T01:24:34;3.40;;;3.20;;
9438;SDS011;5176;42.622;25.386;2023-04-03T01:27:05;3.40;;;3.10;;
9438;SDS011;5176;42.622;25.386;2023-04-03T01:29:35;4.70;;;2.77;;
9438;SDS011;5176;42.622;25.386;2023-04-03T01:32:07;3.17;;;2.90;;
9438;SDS011;5176;42.622;25.386;2023-04-03T01:34:36;3.10;;;2.40;;
9438;SDS011;5176;42.622;25.386;2023-04-03T01:37:04;2.70;;;2.50;;
9438;SDS011;5176;42.622;25.386;2023-04-03T01:39:34;2.23;;;2.13;;
9438;SDS011;5176;42.622;25.386;2023-04-03T01:42:03;2.80;;;2.60;;
9438;SDS011;5176;42.622;25.386;2023-04-03T01:44:32;2.47;;;2.17;;
9438;SDS011;5176;42.622;25.386;2023-04-03T01:47:00;2.33;;;2.17;;
9438;SDS011;5176;42.622;25.386;2023-04-03T01:49:30;2.63;;;2.43;;
9438;SDS011;5176;42.622;25.386;2023-04-03T01:51:59;2.67;;;2.47;;
9438;SDS011;5176;42.622;25.386;2023-04-03T01:54:28;2.60;;;2.50;;
9438;SDS011;5176;42.622;25.386;2023-04-03T01:56:57;2.80;;;2.60;;
9438;SDS011;5176;42.622;25.386;2023-04-03T01:59:27;3.30;;;2.50;;
9438;SDS011;5176;42.622;25.386;2023-04-03T02:01:55;2.50;;;2.30;;
9438;SDS011;5176;42.622;25.386;2023-04-03T02:04:24;2.87;;;2.67;;
9438;SDS011;5176;42.622;25.386;2023-04-03T02:06:55;2.53;;;2.33;;
9438;SDS011;5176;42.622;25.386;2023-04-03T02:09:24;2.90;;;2.70;;
9438;SDS011;5176;42.622;25.386;2023-04-03T02:11:53;3.83;;;2.87;;
9438;SDS011;5176;42.622;25.386;2023-04-03T02:14:21;2.97;;;2.70;;
9438;SDS011;5176;42.622;25.386;2023-04-03T02:16:50;3.57;;;2.87;;
9438;SDS011;5176;42.622;25.386;2023-04-03T02:19:19;3.67;;;3.37;;
9438;SDS011;5176;42.622;25.386;2023-04-03T02:21:48;5.57;;;4.07;;
9438;SDS011;5176;42.622;25.386;2023-04-03T02:24:19;5.67;;;4.30;;
9438;SDS011;5176;42.622;25.386;2023-04-03T02:26:48;3.80;;;3.50;;
9438;SDS011;5176;42.622;25.386;2023-04-03T02:29:17;4.07;;;3.17;;
9438;SDS011;5176;42.622;25.386;2023-04-03T02:31:46;3.07;;;2.87;;
9438;SDS011;5176;42.622;25.386;2023-04-03T02:34:15;3.47;;;3.17;;
9438;SDS011;5176;42.622;25.386;2023-04-03T02:36:44;4.33;;;3.00;;
9438;SDS011;5176;42.622;25.386;2023-04-03T02:39:12;3.67;;;3.37;;
9438;SDS011;5176;42.622;25.386;2023-04-03T02:41:44;5.70;;;4.30;;
9438;SDS011;5176;42.622;25.386;2023-04-03T02:44:13;4.63;;;4.23;;
9438;SDS011;5176;42.622;25.386;2023-04-03T02:46:42;5.00;;;4.20;;
9438;SDS011;5176;42.622;25.386;2023-04-03T02:49:11;4.83;;;4.00;;
9438;SDS011;5176;42.622;25.386;2023-04-03T02:51:39;4.43;;;4.03;;
9438;SDS011;5176;42.622;25.386;2023-04-03T02:54:08;3.73;;;3.40;;
9438;SDS011;5176;42.622;25.386;2023-04-03T02:56:37;4.07;;;3.67;;
9438;SDS011;5176;42.622;25.386;2023-04-03T02:59:07;4.17;;;2.93;;
9438;SDS011;5176;42.622;25.386;2023-04-03T03:01:36;6.17;;;4.63;;
9438;SDS011;5176;42.622;25.386;2023-04-03T03:04:06;3.80;;;3.50;;
9438;SDS011;5176;42.622;25.386;2023-04-03T03:06:34;3.33;;;2.93;;
9438;SDS011;5176;42.622;25.386;2023-04-03T03:09:04;5.40;;;4.73;;
9438;SDS011;5176;42.622;25.386;2023-04-03T03:11:33;5.90;;;4.77;;
9438;SDS011;5176;42.622;25.386;2023-04-03T03:14:02;5.27;;;3.90;;
9438;SDS011;5176;42.622;25.386;2023-04-03T03:16:32;3.97;;;3.47;;
9438;SDS011;5176;42.622;25.386;2023-04-03T03:19:00;5.63;;;4.00;;
9438;SDS011;5176;42.622;25.386;2023-04-03T03:21:30;4.20;;;3.80;;
9438;SDS011;5176;42.622;25.386;2023-04-03T03:23:58;5.37;;;4.37;;
9438;SDS011;5176;42.622;25.386;2023-04-03T03:26:27;4.60;;;4.00;;
9438;SDS011;5176;42.622;25.386;2023-04-03T03:28:56;6.17;;;4.67;;
9438;SDS011;5176;42.622;25.386;2023-04-03T03:31:25;4.30;;;3.90;;
9438;SDS011;5176;42.622;25.386;2023-04-03T03:33:56;4.80;;;4.03;;
9438;SDS011;5176;42.622;25.386;2023-04-03T03:36:25;7.77;;;4.43;;
9438;SDS011;5176;42.622;25.386;2023-04-03T03:38:54;6.13;;;5.20;;
9438;SDS011;5176;42.622;25.386;2023-04-03T03:41:22;7.30;;;5.20;;
9438;SDS011;5176;42.622;25.386;2023-04-03T03:43:51;6.67;;;5.37;;
9438;SDS011;5176;42.622;25.386;2023-04-03T03:46:20;6.60;;;5.30;;
9438;SDS011;5176;42.622;25.386;2023-04-03T03:48:49;5.93;;;5.33;;
9438;SDS011;5176;42.622;25.386;2023-04-03T03:51:20;5.80;;;5.00;;
9438;SDS011;5176;42.622;25.386;2023-04-03T03:53:48;5.53;;;5.03;;
9438;SDS011;5176;42.622;25.386;2023-04-03T03:56:17;7.13;;;5.40;;
9438;SDS011;5176;42.622;25.386;2023-04-03T03:58:46;6.23;;;5.27;;
9438;SDS011;5176;42.622;25.386;2023-04-03T04:01:15;5.67;;;4.73;;
9438;SDS011;5176;42.622;25.386;2023-04-03T04:03:45;8.53;;;5.97;;
9438;SDS011;5176;42.622;25.386;2023-04-03T04:06:14;8.80;;;7.90;;
9438;SDS011;5176;42.622;25.386;2023-04-03T04:08:44;6.63;;;4.93;;
9438;SDS011;5176;42.622;25.386;2023-04-03T04:11:14;5.03;;;4.27;;
9438;SDS011;5176;42.622;25.386;2023-04-03T04:13:43;8.23;;;4.57;;
9438;SDS011;5176;42.622;25.386;2023-04-03T04:16:12;4.90;;;4.50;;
9438;SDS011;5176;42.622;25.386;2023-04-03T04:18:41;6.53;;;3.90;;
9438;SDS011;5176;42.622;25.386;2023-04-03T04:21:10;7.70;;;4.10;;
9438;SDS011;5176;42.622;25.386;2023-04-03T04:23:39;7.77;;;4.33;;
9438;SDS011;5176;42.622;25.386;2023-04-03T04:26:10;3.30;;;3.00;;
9438;SDS011;5176;42.622;25.386;2023-04-03T04:28:39;5.60;;;3.60;;
9438;SDS011;5176;42.622;25.386;2023-04-03T04:31:08;6.97;;;5.40;;
9438;SDS011;5176;42.622;25.386;2023-04-03T04:33:37;5.87;;;5.37;;
9438;SDS011;5176;42.622;25.386;2023-04-03T04:36:06;8.37;;;4.63;;
9438;SDS011;5176;42.622;25.386;2023-04-03T04:38:35;8.53;;;5.43;;
9438;SDS011;5176;42.622;25.386;2023-04-03T04:41:05;7.13;;;6.17;;
9438;SDS011;5176;42.622;25.386;2023-04-03T04:43:36;32.83;;;21.90;;
9438;SDS011;5176;42.622;25.386;2023-04-03T04:46:05;18.57;;;14.13;;
9438;SDS011;5176;42.622;25.386;2023-04-03T04:48:35;16.87;;;15.10;;
9438;SDS011;5176;42.622;25.386;2023-04-03T04:51:05;10.87;;;7.37;;
9438;SDS011;5176;42.622;25.386;2023-04-03T04:53:34;5.63;;;5.03;;
9438;SDS011;5176;42.622;25.386;2023-04-03T04:56:03;7.33;;;6.63;;
9438;SDS011;5176;42.622;25.386;2023-04-03T04:58:32;11.70;;;10.40;;
9438;SDS011;5176;42.622;25.386;2023-04-03T05:01:04;13.60;;;6.60;;
9438;SDS011;5176;42.622;25.386;2023-04-03T05:03:34;8.27;;;5.47;;
9438;SDS011;5176;42.622;25.386;2023-04-03T05:06:03;6.57;;;4.67;;
9438;SDS011;5176;42.622;25.386;2023-04-03T05:08:32;6.33;;;5.30;;
9438;SDS011;5176;42.622;25.386;2023-04-03T05:11:01;5.53;;;4.97;;
9438;SDS011;5176;42.622;25.386;2023-04-03T05:13:30;8.73;;;6.13;;
9438;SDS011;5176;42.622;25.386;2023-04-03T05:15:59;12.80;;;8.57;;
9438;SDS011;5176;42.622;25.386;2023-04-03T05:18:30;9.10;;;7.93;;
9438;SDS011;5176;42.622;25.386;2023-04-03T05:20:59;9.83;;;7.50;;
9438;SDS011;5176;42.622;25.386;2023-04-03T05:23:28;8.23;;;5.80;;
9438;SDS011;5176;42.622;25.386;2023-04-03T05:25:56;5.87;;;5.33;;
9438;SDS011;5176;42.622;25.386;2023-04-03T05:28:25;6.57;;;5.07;;
9438;SDS011;5176;42.622;25.386;2023-04-03T05:30:54;5.53;;;5.03;;
9438;SDS011;5176;42.622;25.386;2023-04-03T05:33:24;5.30;;;4.80;;
9438;SDS011;5176;42.622;25.386;2023-04-03T05:35:55;6.83;;;5.13;;
9438;SDS011;5176;42.622;25.386;2023-04-03T05:38:24;6.10;;;5.50;;
9438;SDS011;5176;42.622;25.386;2023-04-03T05:40:52;7.73;;;5.93;;
9438;SDS011;5176;42.622;25.386;2023-04-03T05:43:21;6.23;;;5.63;;
9438;SDS011;5176;42.622;25.386;2023-04-03T05:45:51;6.77;;;5.90;;
9438;SDS011;5176;42.622;25.386;2023-04-03T05:48:20;10.10;;;6.43;;
9438;SDS011;5176;42.622;25.386;2023-04-03T05:50:49;6.23;;;5.33;;
9438;SDS011;5176;42.622;25.386;2023-04-03T05:53:21;5.20;;;4.70;;
9438;SDS011;5176;42.622;25.386;2023-04-03T05:55:53;4.10;;;3.80;;
9438;SDS011;5176;42.622;25.386;2023-04-03T05:58:22;3.57;;;3.27;;
9438;SDS011;5176;42.622;25.386;2023-04-03T06:00:51;3.30;;;3.10;;
9438;SDS011;5176;42.622;25.386;2023-04-03T06:03:20;4.83;;;3.60;;
9438;SDS011;5176;42.622;25.386;2023-04-03T06:05:50;4.57;;;3.27;;
9438;SDS011;5176;42.622;25.386;2023-04-03T06:08:21;3.90;;;3.60;;
9438;SDS011;5176;42.622;25.386;2023-04-03T06:10:50;4.27;;;3.83;;
9438;SDS011;5176;42.622;25.386;2023-04-03T06:13:19;4.40;;;4.00;;
9438;SDS011;5176;42.622;25.386;2023-04-03T06:15:48;5.33;;;4.43;;
9438;SDS011;5176;42.622;25.386;2023-04-03T06:18:17;5.60;;;5.07;;
9438;SDS011;5176;42.622;25.386;2023-04-03T06:20:46;6.43;;;5.53;;
9438;SDS011;5176;42.622;25.386;2023-04-03T06:23:15;5.03;;;4.60;;
9438;SDS011;5176;42.622;25.386;2023-04-03T06:25:46;5.10;;;4.60;;
9438;SDS011;5176;42.622;25.386;2023-04-03T06:28:14;5.93;;;5.43;;
9438;SDS011;5176;42.622;25.386;2023-04-03T06:30:43;7.70;;;6.40;;
9438;SDS011;5176;42.622;25.386;2023-04-03T06:33:12;7.10;;;6.40;;
9438;SDS011;5176;42.622;25.386;2023-04-03T06:35:41;5.33;;;4.83;;
9438;SDS011;5176;42.622;25.386;2023-04-03T06:38:10;5.40;;;4.70;;
9438;SDS011;5176;42.622;25.386;2023-04-03T06:40:39;10.17;;;4.77;;
9438;SDS011;5176;42.622;25.386;2023-04-03T06:43:10;5.47;;;4.90;;
9438;SDS011;5176;42.622;25.386;2023-04-03T06:45:40;5.93;;;4.43;;
9438;SDS011;5176;42.622;25.386;2023-04-03T06:48:08;8.60;;;6.13;;
9438;SDS011;5176;42.622;25.386;2023-04-03T06:50:38;7.57;;;5.80;;
9438;SDS011;5176;42.622;25.386;2023-04-03T06:53:06;7.00;;;6.33;;
9438;SDS011;5176;42.622;25.386;2023-04-03T06:55:35;7.70;;;6.87;;
9438;SDS011;5176;42.622;25.386;2023-04-03T06:58:04;8.23;;;7.40;;
9438;SDS011;5176;42.622;25.386;2023-04-03T07:00:34;7.90;;;7.10;;
9438;SDS011;5176;42.622;25.386;2023-04-03T07:03:03;8.77;;;7.77;;
9438;SDS011;5176;42.622;25.386;2023-04-03T07:05:33;9.17;;;8.27;;
9438;SDS011;5176;42.622;25.386;2023-04-03T07:08:02;7.93;;;7.13;;
9438;SDS011;5176;42.622;25.386;2023-04-03T07:10:30;8.07;;;7.23;;
9438;SDS011;5176;42.622;25.386;2023-04-03T07:12:59;9.00;;;7.70;;
9438;SDS011;5176;42.622;25.386;2023-04-03T07:15:28;8.87;;;7.27;;
9438;SDS011;5176;42.622;25.386;2023-04-03T07:18:00;8.80;;;6.87;;
9438;SDS011;5176;42.622;25.386;2023-04-03T07:20:29;7.87;;;7.03;;
9438;SDS011;5176;42.622;25.386;2023-04-03T07:22:58;8.17;;;7.30;;
9438;SDS011;5176;42.622;25.386;2023-04-03T07:25:28;9.80;;;7.40;;
9438;SDS011;5176;42.622;25.386;2023-04-03T07:27:58;7.37;;;6.67;;
9438;SDS011;5176;42.622;25.386;2023-04-03T07:30:27;8.03;;;6.40;;
9438;SDS011;5176;42.622;25.386;2023-04-03T07:32:56;11.40;;;7.13;;
9438;SDS011;5176;42.622;25.386;2023-04-03T07:35:26;12.67;;;6.70;;
9438;SDS011;5176;42.622;25.386;2023-04-03T07:37:55;9.40;;;7.37;;
9438;SDS011;5176;42.622;25.386;2023-04-03T07:40:23;9.80;;;7.90;;
9438;SDS011;5176;42.622;25.386;2023-04-03T07:42:53;9.43;;;8.00;;
9438;SDS011;5176;42.622;25.386;2023-04-03T07:45:23;8.77;;;7.87;;
9438;SDS011;5176;42.622;25.386;2023-04-03T07:47:51;8.93;;;7.63;;
9438;SDS011;5176;42.622;25.386;2023-04-03T07:50:21;8.27;;;7.30;;
9438;SDS011;5176;42.622;25.386;2023-04-03T07:52:51;7.50;;;6.80;;
9438;SDS011;5176;42.622;25.386;2023-04-03T07:55:21;7.30;;;6.70;;
9438;SDS011;5176;42.622;25.386;2023-04-03T07:57:49;6.90;;;6.30;;
9438;SDS011;5176;42.622;25.386;2023-04-03T08:00:19;6.90;;;6.30;;
9438;SDS011;5176;42.622;25.386;2023-04-03T08:02:49;6.27;;;5.67;;
9438;SDS011;5176;42.622;25.386;2023-04-03T08:05:18;8.00;;;6.40;;
9438;SDS011;5176;42.622;25.386;2023-04-03T08:07:48;8.87;;;6.50;;
9438;SDS011;5176;42.622;25.386;2023-04-03T08:10:19;7.40;;;6.60;;
9438;SDS011;5176;42.622;25.386;2023-04-03T08:12:48;6.70;;;6.00;;
9438;SDS011;5176;42.622;25.386;2023-04-03T08:15:17;11.73;;;8.83;;
9438;SDS011;5176;42.622;25.386;2023-04-03T08:17:46;11.30;;;8.50;;
9438;SDS011;5176;42.622;25.386;2023-04-03T08:20:15;15.03;;;10.00;;
9438;SDS011;5176;42.622;25.386;2023-04-03T08:22:45;8.27;;;6.07;;
9438;SDS011;5176;42.622;25.386;2023-04-03T08:25:14;7.90;;;4.93;;
9438;SDS011;5176;42.622;25.386;2023-04-03T08:27:45;11.70;;;5.07;;
9438;SDS011;5176;42.622;25.386;2023-04-03T08:30:14;10.63;;;5.10;;
9438;SDS011;5176;42.622;25.386;2023-04-03T08:32:43;5.30;;;4.77;;
9438;SDS011;5176;42.622;25.386;2023-04-03T08:35:13;7.27;;;4.87;;
9438;SDS011;5176;42.622;25.386;2023-04-03T08:37:41;11.00;;;5.00;;
9438;SDS011;5176;42.622;25.386;2023-04-03T08:40:12;7.27;;;4.20;;
9438;SDS011;5176;42.622;25.386;2023-04-03T08:42:49;9.03;;;5.33;;
9438;SDS011;5176;42.622;25.386;2023-04-03T08:45:26;11.00;;;6.40;;
9438;SDS011;5176;42.622;25.386;2023-04-03T08:48:03;5.40;;;4.20;;
9438;SDS011;5176;42.622;25.386;2023-04-03T08:50:35;6.23;;;3.47;;
9438;SDS011;5176;42.622;25.386;2023-04-03T08:53:10;3.20;;;2.90;;
9438;SDS011;5176;42.622;25.386;2023-04-03T08:55:43;3.63;;;2.73;;
9438;SDS011;5176;42.622;25.386;2023-04-03T08:58:16;2.57;;;2.37;;
9438;SDS011;5176;42.622;25.386;2023-04-03T09:00:50;4.57;;;2.97;;
9438;SDS011;5176;42.622;25.386;2023-04-03T09:03:21;5.80;;;3.70;;
9438;SDS011;5176;42.622;25.386;2023-04-03T09:05:52;2.27;;;1.87;;
9438;SDS011;5176;42.622;25.386;2023-04-03T09:08:24;2.53;;;1.83;;
9438;SDS011;5176;42.622;25.386;2023-04-03T09:10:58;2.23;;;2.00;;
9438;SDS011;5176;42.622;25.386;2023-04-03T09:13:39;1.80;;;1.70;;
9438;SDS011;5176;42.622;25.386;2023-04-03T09:16:17;2.47;;;2.28;;
9438;SDS011;5176;42.622;25.386;2023-04-03T09:18:53;2.90;;;1.70;;
9438;SDS011;5176;42.622;25.386;2023-04-03T09:21:27;2.75;;;1.90;;
9438;SDS011;5176;42.622;25.386;2023-04-03T09:24:02;1.70;;;1.60;;
9438;SDS011;5176;42.622;25.386;2023-04-03T09:26:35;1.83;;;1.73;;
9438;SDS011;5176;42.622;25.386;2023-04-03T09:29:13;1.95;;;1.85;;
9438;SDS011;5176;42.622;25.386;2023-04-03T09:31:46;2.03;;;1.90;;
9438;SDS011;5176;42.622;25.386;2023-04-03T09:34:19;2.80;;;1.95;;
9438;SDS011;5176;42.622;25.386;2023-04-03T09:36:53;1.88;;;1.70;;
9438;SDS011;5176;42.622;25.386;2023-04-03T09:39:23;2.97;;;2.40;;
9438;SDS011;5176;42.622;25.386;2023-04-03T09:41:55;2.15;;;1.90;;
9438;SDS011;5176;42.622;25.386;2023-04-03T09:44:28;2.50;;;2.30;;
9438;SDS011;5176;42.622;25.386;2023-04-03T09:47:17;3.22;;;2.20;;
9438;SDS011;5176;42.622;25.386;2023-04-03T09:49:47;2.00;;;1.90;;
9438;SDS011;5176;42.622;25.386;2023-04-03T09:52:18;2.97;;;1.80;;
9438;SDS011;5176;42.622;25.386;2023-04-03T09:54:48;2.00;;;1.90;;
9438;SDS011;5176;42.622;25.386;2023-04-03T09:57:17;4.43;;;2.20;;
9438;SDS011;5176;42.622;25.386;2023-04-03T09:59:47;2.00;;;1.90;;
9438;SDS011;5176;42.622;25.386;2023-04-03T10:02:32;2.40;;;2.20;;
9438;SDS011;5176;42.622;25.386;2023-04-03T10:05:25;2.17;;;1.97;;
9438;SDS011;5176;42.622;25.386;2023-04-03T10:08:06;2.03;;;1.93;;
9438;SDS011;5176;42.622;25.386;2023-04-03T10:10:48;4.37;;;2.60;;
9438;SDS011;5176;42.622;25.386;2023-04-03T10:13:49;2.83;;;2.60;;
9438;SDS011;5176;42.622;25.386;2023-04-03T10:16:21;2.90;;;2.70;;
9438;SDS011;5176;42.622;25.386;2023-04-03T10:19:02;3.53;;;2.13;;
9438;SDS011;5176;42.622;25.386;2023-04-03T10:21:42;3.73;;;3.00;;
9438;SDS011;5176;42.622;25.386;2023-04-03T10:24:17;3.87;;;2.90;;
9438;SDS011;5176;42.622;25.386;2023-04-03T10:26:54;32.83;;;24.57;;
9438;SDS011;5176;42.622;25.386;2023-04-03T10:29:29;7.13;;;5.30;;
9438;SDS011;5176;42.622;25.386;2023-04-03T10:32:19;3.10;;;2.90;;
9438;SDS011;5176;42.622;25.386;2023-04-03T10:35:00;3.50;;;2.23;;
9438;SDS011;5176;42.622;25.386;2023-04-03T10:37:40;9.97;;;9.00;;
9438;SDS011;5176;42.622;25.386;2023-04-03T10:40:24;12.60;;;11.40;;
9438;SDS011;5176;42.622;25.386;2023-04-03T10:43:01;3.37;;;2.70;;
9438;SDS011;5176;42.622;25.386;2023-04-03T10:45:40;7.43;;;3.20;;
9438;SDS011;5176;42.622;25.386;2023-04-03T10:48:22;3.50;;;2.10;;
9438;SDS011;5176;42.622;25.386;2023-04-03T10:51:00;1.90;;;1.80;;
9438;SDS011;5176;42.622;25.386;2023-04-03T10:53:36;6.07;;;1.93;;
9438;SDS011;5176;42.622;25.386;2023-04-03T10:56:10;2.57;;;1.80;;
9438;SDS011;5176;42.622;25.386;2023-04-03T10:58:45;2.43;;;2.07;;
9438;SDS011;5176;42.622;25.386;2023-04-03T11:01:21;1.73;;;1.63;;
9438;SDS011;5176;42.622;25.386;2023-04-03T11:03:56;2.20;;;2.00;;
9438;SDS011;5176;42.622;25.386;2023-04-03T11:06:26;4.13;;;3.53;;
9438;SDS011;5176;42.622;25.386;2023-04-03T11:09:05;4.40;;;2.80;;
9438;SDS011;5176;42.622;25.386;2023-04-03T11:11:39;2.97;;;2.33;;
9438;SDS011;5176;42.622;25.386;2023-04-03T11:14:11;3.30;;;3.00;;
9438;SDS011;5176;42.622;25.386;2023-04-03T11:16:46;4.67;;;4.00;;
9438;SDS011;5176;42.622;25.386;2023-04-03T11:19:20;5.83;;;4.07;;
9438;SDS011;5176;42.622;25.386;2023-04-03T11:21:51;2.20;;;2.10;;
9438;SDS011;5176;42.622;25.386;2023-04-03T11:24:25;2.83;;;2.57;;
9438;SDS011;5176;42.622;25.386;2023-04-03T11:26:56;2.73;;;2.53;;
9438;SDS011;5176;42.622;25.386;2023-04-03T11:29:28;3.70;;;2.43;;
9438;SDS011;5176;42.622;25.386;2023-04-03T11:32:04;4.05;;;2.30;;
9438;SDS011;5176;42.622;25.386;2023-04-03T11:34:42;4.70;;;2.33;;
9438;SDS011;5176;42.622;25.386;2023-04-03T11:37:15;2.70;;;2.50;;
9438;SDS011;5176;42.622;25.386;2023-04-03T11:39:52;3.63;;;2.17;;
9438;SDS011;5176;42.622;25.386;2023-04-03T11:42:25;4.23;;;2.40;;
9438;SDS011;5176;42.622;25.386;2023-04-03T11:45:22;3.37;;;2.40;;
9438;SDS011;5176;42.622;25.386;2023-04-03T11:47:58;2.47;;;2.33;;
9438;SDS011;5176;42.622;25.386;2023-04-03T11:50:37;2.23;;;2.03;;
9438;SDS011;5176;42.622;25.386;2023-04-03T11:56:28;5.05;;;2.83;;
9438;SDS011;5176;42.622;25.386;2023-04-03T12:02:14;2.90;;;2.70;;
9438;SDS011;5176;42.622;25.386;2023-04-03T12:14:01;5.60;;;5.00;;
9438;SDS011;5176;42.622;25.386;2023-04-03T12:16:32;28.87;;;22.67;;
9438;SDS011;5176;42.622;25.386;2023-04-03T12:24:50;22.20;;;17.80;;
9438;SDS011;5176;42.622;25.386;2023-04-03T12:27:26;12.07;;;7.93;;
9438;SDS011;5176;42.622;25.386;2023-04-03T12:30:00;4.43;;;4.03;;
9438;SDS011;5176;42.622;25.386;2023-04-03T12:32:40;5.17;;;4.10;;
9438;SDS011;5176;42.622;25.386;2023-04-03T12:35:20;4.80;;;4.10;;
9438;SDS011;5176;42.622;25.386;2023-04-03T12:38:10;5.73;;;4.90;;
9438;SDS011;5176;42.622;25.386;2023-04-03T12:40:57;5.50;;;3.83;;
9438;SDS011;5176;42.622;25.386;2023-04-03T12:46:33;5.60;;;4.93;;
9438;SDS011;5176;42.622;25.386;2023-04-03T12:49:14;5.90;;;4.90;;
9438;SDS011;5176;42.622;25.386;2023-04-03T12:51:54;4.50;;;4.10;;
9438;SDS011;5176;42.622;25.386;2023-04-03T12:54:26;7.70;;;6.10;;
9438;SDS011;5176;42.622;25.386;2023-04-03T12:57:12;10.23;;;8.80;;
9438;SDS011;5176;42.622;25.386;2023-04-03T12:59:46;7.37;;;6.67;;
9438;SDS011;5176;42.622;25.386;2023-04-03T13:02:20;8.80;;;5.67;;
9438;SDS011;5176;42.622;25.386;2023-04-03T13:04:51;7.20;;;6.50;;
9438;SDS011;5176;42.622;25.386;2023-04-03T13:07:22;9.70;;;6.90;;
9438;SDS011;5176;42.622;25.386;2023-04-03T13:09:56;11.27;;;9.80;;
9438;SDS011;5176;42.622;25.386;2023-04-03T13:12:28;11.47;;;8.20;;
9438;SDS011;5176;42.622;25.386;2023-04-03T13:14:58;7.00;;;5.80;;
9438;SDS011;5176;42.622;25.386;2023-04-03T13:17:30;9.90;;;6.60;;
9438;SDS011;5176;42.622;25.386;2023-04-03T13:20:09;8.27;;;5.77;;
9438;SDS011;5176;42.622;25.386;2023-04-03T13:22:39;8.43;;;5.83;;
9438;SDS011;5176;42.622;25.386;2023-04-03T13:25:16;6.97;;;5.90;;
9438;SDS011;5176;42.622;25.386;2023-04-03T13:27:48;8.47;;;6.03;;
9438;SDS011;5176;42.622;25.386;2023-04-03T13:30:24;7.60;;;5.53;;
9438;SDS011;5176;42.622;25.386;2023-04-03T13:32:56;7.33;;;5.47;;
9438;SDS011;5176;42.622;25.386;2023-04-03T13:35:28;7.13;;;6.03;;
9438;SDS011;5176;42.622;25.386;2023-04-03T13:38:01;11.37;;;5.87;;
9438;SDS011;5176;42.622;25.386;2023-04-03T13:40:32;7.47;;;6.77;;
9438;SDS011;5176;42.622;25.386;2023-04-03T13:43:05;9.43;;;5.70;;
9438;SDS011;5176;42.622;25.386;2023-04-03T13:45:53;13.37;;;9.87;;
9438;SDS011;5176;42.622;25.386;2023-04-03T13:48:37;13.37;;;10.07;;
9438;SDS011;5176;42.622;25.386;2023-04-03T13:51:17;10.40;;;6.93;;
9438;SDS011;5176;42.622;25.386;2023-04-03T13:53:50;21.27;;;16.00;;
9438;SDS011;5176;42.622;25.386;2023-04-03T13:56:30;22.37;;;17.53;;
9438;SDS011;5176;42.622;25.386;2023-04-03T13:59:19;10.73;;;9.03;;
9438;SDS011;5176;42.622;25.386;2023-04-03T14:01:52;16.80;;;11.07;;
9438;SDS011;5176;42.622;25.386;2023-04-03T14:04:22;12.83;;;9.07;;
9438;SDS011;5176;42.622;25.386;2023-04-03T14:06:55;11.03;;;9.70;;
9438;SDS011;5176;42.622;25.386;2023-04-03T14:09:25;15.07;;;13.27;;
9438;SDS011;5176;42.622;25.386;2023-04-03T14:11:55;21.10;;;18.83;;
9438;SDS011;5176;42.622;25.386;2023-04-03T14:14:30;23.07;;;18.80;;
9438;SDS011;5176;42.622;25.386;2023-04-03T14:17:03;23.70;;;20.70;;
9438;SDS011;5176;42.622;25.386;2023-04-03T14:19:45;21.80;;;19.13;;
9438;SDS011;5176;42.622;25.386;2023-04-03T14:22:15;17.40;;;14.57;;
9438;SDS011;5176;42.622;25.386;2023-04-03T14:24:48;16.50;;;13.53;;
9438;SDS011;5176;42.622;25.386;2023-04-03T14:27:20;12.87;;;10.90;;
9438;SDS011;5176;42.622;25.386;2023-04-03T14:29:52;12.17;;;10.77;;
9438;SDS011;5176;42.622;25.386;2023-04-03T14:32:23;11.70;;;10.20;;
9438;SDS011;5176;42.622;25.386;2023-04-03T14:34:54;10.63;;;9.03;;
9438;SDS011;5176;42.622;25.386;2023-04-03T14:37:24;12.33;;;8.63;;
9438;SDS011;5176;42.622;25.386;2023-04-03T14:39:55;13.53;;;9.83;;
9438;SDS011;5176;42.622;25.386;2023-04-03T14:42:26;9.03;;;8.10;;
9438;SDS011;5176;42.622;25.386;2023-04-03T14:45:00;9.93;;;8.60;;
9438;SDS011;5176;42.622;25.386;2023-04-03T14:47:30;11.10;;;9.10;;
9438;SDS011;5176;42.622;25.386;2023-04-03T14:49:59;10.43;;;8.87;;
9438;SDS011;5176;42.622;25.386;2023-04-03T14:52:29;10.77;;;7.07;;
9438;SDS011;5176;42.622;25.386;2023-04-03T14:54:59;12.17;;;7.67;;
9438;SDS011;5176;42.622;25.386;2023-04-03T14:57:29;8.03;;;7.00;;
9438;SDS011;5176;42.622;25.386;2023-04-03T14:59:58;9.10;;;6.47;;
9438;SDS011;5176;42.622;25.386;2023-04-03T15:02:31;8.43;;;6.90;;
9438;SDS011;5176;42.622;25.386;2023-04-03T15:05:02;8.67;;;6.67;;
9438;SDS011;5176;42.622;25.386;2023-04-03T15:07:33;8.63;;;7.03;;
9438;SDS011;5176;42.622;25.386;2023-04-03T15:10:06;11.27;;;8.47;;
9438;SDS011;5176;42.622;25.386;2023-04-03T15:12:44;11.90;;;9.57;;
9438;SDS011;5176;42.622;25.386;2023-04-03T15:15:17;12.90;;;8.23;;
9438;SDS011;5176;42.622;25.386;2023-04-03T15:17:47;10.07;;;7.30;;
9438;SDS011;5176;42.622;25.386;2023-04-03T15:20:21;8.03;;;5.97;;
9438;SDS011;5176;42.622;25.386;2023-04-03T15:22:52;9.93;;;8.93;;
9438;SDS011;5176;42.622;25.386;2023-04-03T15:25:22;16.77;;;14.93;;
9438;SDS011;5176;42.622;25.386;2023-04-03T15:27:52;8.47;;;7.60;;
9438;SDS011;5176;42.622;25.386;2023-04-03T15:30:23;11.43;;;8.30;;
9438;SDS011;5176;42.622;25.386;2023-04-03T15:32:53;14.10;;;9.20;;
9438;SDS011;5176;42.622;25.386;2023-04-03T15:35:22;18.00;;;9.60;;
9438;SDS011;5176;42.622;25.386;2023-04-03T15:37:51;10.80;;;8.30;;
9438;SDS011;5176;42.622;25.386;2023-04-03T15:40:20;10.30;;;8.57;;
9438;SDS011;5176;42.622;25.386;2023-04-03T15:42:49;9.73;;;8.63;;
9438;SDS011;5176;42.622;25.386;2023-04-03T15:45:18;10.67;;;9.57;;
9438;SDS011;5176;42.622;25.386;2023-04-03T15:47:49;9.97;;;8.50;;
9438;SDS011;5176;42.622;25.386;2023-04-03T15:50:18;6.47;;;5.70;;
9438;SDS011;5176;42.622;25.386;2023-04-03T15:52:49;4.83;;;4.43;;